< < Back
Terminal Aerodrome Forecast


Current Version              Previous Versions:   1  2  3  4  5  6  7  8  9  

Terminal Aerodrome Forecast

638
FTUS42 KFFC 011100
TAFFTY
TAF
KFTY 011120Z 0112/0212 00000KT 6SM BR FEW250
     FM011400 20003KT P6SM FEW050
     FM020000 00000KT P6SM SKC=

Latest METAR

386
SAUS70 KWBC 011400 RRL
MTRFTY
METAR KFTY 011353Z 00000KT 10SM CLR 21/17 A3002 RMK AO2 SLP159
T02060172


USA.gov is the U.S. government's official web portal to all federal, state and local government web resources and services.